KMOX

Details ICAO KMOX
Name MORRIS MUNI
Region United States
Timezone America/Chicago (UTC-6.0)
Plans Departing 0
Arriving 0
Stats Elevation 1,138 ft / 347 m (AMSL)
Location 45.566347° -95.967496°
Runways 2
Magnetic Variation 2.349° E
Sunrise 2017-12-17 14:00:21 UTC / 2017-12-17 08:00:21 Local
Sunset 2017-12-17 22:42:37 UTC / 2017-12-17 16:42:37 Local
Advertisement - Login to hide

Runways

ID Width Length Bearing (true) Bearing (mag) Surface Threshold Offset Overrun Length
04 150 ft / 46 m 2,638 ft / 804 m 48.15° 45.80° Grass 0 ft / 0 m 0 ft / 0 m
14 75 ft / 23 m 3,998 ft / 1,219 m 144.07° 141.72° Asphalt 0 ft / 0 m 0 ft / 0 m
22 150 ft / 46 m 2,638 ft / 804 m 228.16° 225.81° Grass 0 ft / 0 m 0 ft / 0 m
32 75 ft / 23 m 3,998 ft / 1,219 m 324.07° 321.72° Asphalt 0 ft / 0 m 0 ft / 0 m

Map

Weather


0- 5 10 15 20 25 30 35+ Temperature / ° C

Clouds and Precipitation
Forecast for 2017-12-18 00:00 UTC. Updated 25 minutes ago

Ground ~20,000 ft ~40,000 ft Winds

METAR

KMOX 172135Z AUTO 15005KT 7SM SCT016 OVC100 00/M02 A2993 RMK AO2

TAF

Not found

Frequencies

Unicom 122.80 MHz CTAF/UNICOM
Warning: Do not use this data for real-world aviation or navigation. No guarantee of current accuracy is given.